Date,TemperatureHighF,TemperatureAvgF,TemperatureLowF,DewpointHighF,DewpointAvgF,DewpointLowF,HumidityHigh,HumidityAvg,HumidityLow,PressureMaxIn,PressureMinIn,WindSpeedMaxMPH,WindSpeedAvgMPH,GustSpeedMaxMPH,PrecipitationSumIn
2013-1-1,30,28,22,28,24,13,91,82,68,30.00,29.90,5,2,15,0.00
2013-1-2,23,16,12,12,9,7,79,74,56,30.15,30.00,3,0,10,0.00
2013-1-3,31,12,4,19,6,-1,82,76,52,30.14,30.04,10,1,18,0.00
2013-1-4,27,27,27,19,19,18,72,72,71,30.11,30.11,7,3,13,0.00
2013-1-5,35,28,22,23,18,14,77,67,56,30.27,30.04,6,2,11,0.00
2013-1-6,36,34,30,30,26,23,85,72,64,30.11,29.86,7,3,18,0.02
2013-1-7,33,28,25,24,21,20,81,74,65,30.35,30.14,10,4,12,0.02
2013-1-8,29,24,21,22,19,16,84,81,73,30.24,30.14,7,1,8,0.00
2013-1-10,39,34,27,27,26,24,87,72,57,30.50,30.15,4,1,14,0.00
2013-1-11,56,48,39,49,40,25,92,75,53,30.12,29.76,10,5,16,0.29
2013-1-12,60,56,50,55,52,48,95,86,75,29.91,29.76,7,4,12,0.00
2013-1-13,64,61,52,55,54,49,90,77,67,29.76,29.64,13,8,26,0.11
2013-1-14,42,32,27,39,25,19,90,74,64,30.31,29.86,9,3,22,0.03
2013-1-15,31,27,22,20,19,18,83,72,61,30.29,30.01,3,1,11,0.00
2013-1-16,35,31,29,27,24,19,86,74,65,29.99,29.79,6,2,12,0.00
2013-1-17,35,32,27,26,24,14,80,72,60,30.12,29.91,23,2,25,0.00
2013-1-18,26,21,17,14,10,6,72,61,54,30.39,30.13,23,5,25,0.00
2013-1-19,52,45,32,25,22,17,55,40,26,30.09,29.67,21,9,27,0.00
2013-1-20,46,30,21,30,15,8,62,53,42,30.07,29.63,30,6,30,0.00
2013-1-21,21,19,9,14,8,-3,76,62,45,30.04,29.85,21,2,26,0.00
2013-1-22,12,8,5,0,-4,-8,72,59,48,30.23,30.03,18,3,21,0.00
2013-1-23,7,3,2,0,-4,-5,73,72,69,30.23,30.21,5,0,5,0.00
2013-1-24,14,12,12,8,7,7,81,78,75,30.33,29.99,8,2,9,0.00
2013-1-25,18,16,11,13,10,1,83,77,58,30.43,29.95,6,0,13,0.00
2013-1-26,25,21,16,20,15,11,85,77,59,30.36,30.00,18,1,18,0.01
2013-1-27,30,24,11,18,14,6,84,67,53,30.44,30.18,13,1,13,0.00
2013-1-28,48,39,28,46,36,18,94,89,64,30.18,29.87,11,4,19,0.42
2013-1-29,62,55,48,54,50,46,96,83,64,29.92,29.56,20,7,20,0.05
2013-1-30,66,57,36,56,49,32,89,76,60,29.56,29.05,28,11,32,0.64
2013-1-31,36,26,21,32,18,8,86,69,56,29.70,29.21,30,6,32,0.01
2013-2-1,19,14,12,8,3,0,68,60,54,30.25,29.78,15,4,22,0.00
2013-2-2,22,18,9,19,13,1,86,80,62,30.23,29.88,12,3,13,0.00
2013-2-3,22,19,16,19,12,8,86,75,62,29.96,29.78,18,1,18,0.01
2013-2-4,24,18,14,21,12,7,87,78,70,29.98,29.77,8,1,18,0.00
2013-2-5,28,25,23,23,21,18,89,83,69,29.84,29.75,9,0,9,0.01
2013-2-6,30,26,21,23,17,11,88,68,47,30.23,29.85,8,2,19,0.03
2013-2-7,44,32,20,27,20,10,70,61,45,30.19,29.78,8,4,16,0.03
2013-2-8,38,28,24,35,21,18,89,76,69,30.13,29.65,25,9,29,0.17
2013-2-9,34,26,24,18,16,14,76,67,50,30.33,30.13,18,4,19,0.00
2013-2-10,47,34,22,28,17,13,73,52,33,30.23,29.77,13,4,22,0.00
2013-2-11,53,49,41,41,34,31,90,59,45,29.74,29.57,25,9,25,0.01
2013-2-12,40,34,28,24,22,20,76,62,51,29.98,29.80,10,2,26,0.00
2013-2-13,33,27,24,25,22,19,84,79,71,29.81,29.66,5,0,8,0.00
2013-2-22,39,30,20,35,24,12,90,77,65,30.18,29.84,7,3,22,0.01
2013-2-23,39,35,29,31,28,21,83,74,63,29.87,29.76,2,0,11,0.00
2013-2-24,31,29,26,22,20,15,82,70,61,30.04,29.78,6,2,18,0.00
2013-2-25,41,32,23,23,22,20,87,65,44,30.12,29.94,4,1,12,0.00
2013-2-26,38,34,31,34,26,19,89,73,54,29.94,29.41,12,6,29,0.94
2013-2-27,40,37,33,36,33,28,91,86,77,29.56,29.39,9,5,20,0.27
2013-2-28,34,32,30,30,28,26,88,84,79,29.76,29.49,18,6,20,0.03
2013-3-1,30,28,25,26,22,18,85,78,68,29.91,29.75,19,8,19,0.00
2013-3-2,28,25,23,21,19,15,84,75,62,29.90,29.85,20,5,21,0.00
2013-3-3,26,23,21,20,16,12,86,75,62,29.95,29.86,14,3,14,0.01
2013-3-4,35,27,17,19,16,12,83,64,47,30.04,29.93,11,1,14,0.01
2013-3-5,38,26,20,18,15,12,75,65,38,30.00,29.79,13,2,14,0.00
2013-3-6,41,35,31,30,27,20,90,73,49,30.04,29.51,12,3,24,0.13
2013-3-7,40,32,30,29,26,24,86,82,59,30.22,30.04,16,2,19,0.00
2013-3-8,35,28,26,25,22,20,82,78,66,30.35,30.22,15,5,18,0.00
2013-3-14,31,30,28,20,19,19,67,65,62,30.06,30.03,0,0,0,0.00
2013-3-15,47,37,27,36,26,18,87,66,52,30.01,29.73,5,2,15,0.03
2013-3-26,38,34,33,30,28,27,82,78,68,29.99,29.87,12,4,18,0.02
2013-3-27,42,38,32,29,25,22,88,62,49,30.06,29.98,19,4,24,0.01
2013-3-28,44,40,33,27,25,21,67,54,45,30.16,30.05,15,3,18,0.00
2013-3-29,51,41,32,28,23,17,78,52,30,30.16,30.06,20,2,20,0.00
2013-3-30,55,47,25,27,21,17,80,37,23,30.13,29.97,13,3,14,0.00
2013-3-31,49,47,46,43,42,40,84,80,74,29.64,29.58,10,4,14,0.02
2013-4-1,47,40,35,38,24,11,74,56,32,29.84,29.57,16,8,27,0.00
2013-4-2,37,30,22,14,12,8,64,47,30,30.10,29.95,7,3,19,0.00
2013-4-3,37,28,23,16,11,6,72,49,29,30.32,30.10,14,2,30,0.00
2013-4-4,53,43,24,12,9,3,52,27,13,30.30,29.83,10,2,11,0.00
2013-4-5,50,36,29,28,18,11,62,49,32,30.10,29.81,13,1,29,0.00
2013-4-6,57,38,25,19,13,8,65,42,14,30.16,29.87,11,3,18,0.00
2013-4-7,72,60,48,41,33,11,63,38,18,29.87,29.70,15,6,28,0.00
2013-4-8,66,49,41,50,39,35,78,69,56,29.89,29.80,13,2,15,0.00
2013-4-9,79,72,53,53,50,43,72,47,38,29.94,29.75,16,3,20,0.00
2013-4-10,69,68,67,53,52,51,61,57,53,29.77,29.76,10,1,10,0.00
2013-6-1,81,73,65,68,64,61,90,74,60,29.82,29.62,5,2,23,0.32
2013-6-2,75,70,65,65,60,55,93,72,50,29.74,29.60,4,1,20,0.41
2013-6-3,67,60,49,56,46,36,80,62,38,29.97,29.74,3,2,12,0.00
2013-6-4,71,57,40,48,42,37,92,61,34,30.02,29.97,1,0,11,0.00
2013-6-5,79,67,50,59,48,42,78,53,31,30.01,29.77,1,0,10,0.00
2013-6-6,67,64,56,63,60,54,93,90,74,29.77,29.64,3,1,13,0.95
2013-6-7,62,57,55,55,52,52,93,84,77,29.75,29.67,7,1,12,0.00
2013-6-8,73,63,55,56,53,50,90,71,48,29.97,29.75,8,0,8,0.00
2013-6-9,79,68,55,62,58,52,91,71,52,30.01,29.85,11,1,12,0.00
2013-6-10,72,67,62,68,63,59,93,89,76,29.83,29.63,11,0,13,0.71
2013-6-11,78,69,62,64,62,59,94,79,57,29.75,29.65,14,1,15,0.02
2013-6-12,81,73,64,71,65,60,88,76,58,29.77,29.52,13,0,14,0.23
2013-6-13,71,66,60,65,57,48,92,76,47,29.72,29.38,22,4,28,0.44
2013-6-14,72,62,55,57,54,49,89,74,52,29.95,29.71,13,2,13,0.00
2013-6-15,78,64,47,57,52,44,93,68,35,30.00,29.84,10,0,10,0.00
2013-6-16,69,65,63,67,60,56,92,84,71,29.86,29.74,13,0,13,0.18
2013-6-17,82,69,63,65,62,55,94,81,39,29.82,29.76,3,0,22,0.38
2013-6-18,77,68,60,64,59,51,93,76,58,29.86,29.72,4,1,14,0.00
2013-6-19,75,64,52,52,47,42,84,58,34,30.03,29.86,2,1,12,0.00
2013-6-20,80,66,50,56,50,43,91,60,30,30.09,30.02,1,0,7,0.00
2013-6-21,84,76,56,61,59,53,91,58,37,30.11,30.00,6,0,8,0.00
2013-6-22,87,72,60,67,62,57,91,72,45,30.03,29.91,10,0,10,0.00
2013-6-23,86,77,66,70,65,60,93,69,45,29.99,29.89,13,0,13,0.00
2013-6-24,87,76,63,68,63,59,91,67,45,29.98,29.84,11,0,11,0.00
2013-6-25,87,76,69,71,67,64,89,75,56,29.88,29.73,13,1,23,0.43
2013-6-26,74,67,66,70,65,64,94,93,82,29.79,29.71,11,0,11,0.72
2013-6-27,80,72,67,70,66,64,93,83,61,29.65,29.51,1,0,11,0.20
2013-6-28,70,67,66,67,65,64,94,94,90,29.49,29.44,4,0,4,1.06
2013-6-29,75,66,60,65,61,58,93,83,59,29.54,29.41,0,0,7,0.06
2013-6-30,79,69,61,66,62,59,94,81,58,29.71,29.55,2,0,10,0.04
2013-7-1,76,68,64,67,63,61,91,85,68,29.81,29.68,3,0,13,0.08
2013-7-2,81,70,66,67,64,63,93,83,61,29.88,29.79,1,0,10,0.04
2013-7-3,84,76,68,70,68,65,92,76,56,30.00,29.90,9,0,9,0.09
2013-7-4,78,72,68,69,67,65,93,84,69,30.06,29.98,7,0,7,0.03
2013-7-5,77,70,68,70,67,66,93,89,75,30.02,29.95,8,0,9,0.33
2013-7-6,82,74,68,70,68,66,94,82,63,30.01,29.87,1,0,7,0.00
2013-7-7,78,72,67,68,65,63,88,78,62,29.96,29.86,1,0,9,0.01
2013-7-8,83,72,62,70,65,59,92,79,60,29.97,29.90,1,0,12,0.18
2013-7-9,84,74,68,76,70,65,94,87,69,29.93,29.80,21,0,22,0.41
2013-7-10,86,74,65,76,69,63,95,87,72,29.84,29.63,21,0,21,1.74
2013-7-11,76,69,59,64,59,51,96,73,42,29.89,29.77,16,1,16,0.01
2013-7-12,77,67,56,64,59,54,94,76,52,29.96,29.88,13,0,14,0.00
2013-7-13,83,73,60,67,63,57,90,73,52,30.07,29.95,11,0,12,0.00
2013-7-14,88,78,68,71,67,64,89,71,52,30.11,30.04,8,0,9,0.00
2013-7-15,91,80,69,72,69,66,92,71,47,30.18,30.09,6,0,7,0.00
2013-7-16,90,78,70,74,70,68,94,79,53,30.17,30.11,18,1,19,0.00
2013-7-17,91,81,71,74,72,69,94,75,50,30.14,30.00,1,0,11,0.00
2013-7-18,92,86,72,75,72,70,93,64,50,30.03,29.87,12,0,12,0.00
2013-7-19,89,80,72,74,71,69,91,77,56,29.87,29.74,14,1,14,0.00
2013-7-20,80,73,70,69,68,66,91,82,67,29.78,29.67,2,0,16,0.03
2013-7-21,83,74,69,68,67,65,94,80,55,29.82,29.75,4,0,15,0.00
2013-7-22,74,69,66,71,66,63,93,90,85,29.81,29.63,1,0,9,0.63
2013-7-23,80,69,64,70,65,62,95,88,68,29.66,29.54,10,0,11,0.15
2013-7-24,70,65,57,64,54,50,93,69,51,29.89,29.63,13,1,16,0.00
2013-7-25,64,56,50,54,50,48,92,83,69,29.95,29.89,8,0,8,0.00
2013-7-26,79,72,51,59,56,49,92,58,37,29.96,29.84,8,0,8,0.00
2013-7-27,70,65,61,66,61,57,90,87,79,29.84,29.69,9,0,12,0.08
2013-7-28,63,63,63,60,60,60,90,90,90,29.71,29.71,0,0,0,0.00
2013-7-29,71,62,53,56,52,50,89,71,50,30.05,29.89,2,0,13,0.00
2013-7-30,77,65,52,59,55,50,95,73,47,30.09,30.01,1,0,8,0.00
2013-8-1,80,74,63,63,59,54,86,60,44,29.79,29.73,12,1,12,0.00
2013-8-2,74,66,56,62,58,52,93,77,49,29.87,29.77,11,0,12,0.03
2013-8-3,79,69,59,65,58,50,94,72,42,29.88,29.78,14,1,14,0.19
2013-8-4,73,64,54,59,53,49,94,72,46,29.98,29.86,16,1,16,0.02
2013-8-5,73,62,50,58,53,48,94,74,45,30.00,29.87,7,0,7,0.00
2013-8-6,80,68,56,59,56,53,93,69,41,29.89,29.81,10,0,10,0.00
2013-8-7,79,69,61,70,64,57,92,84,70,29.83,29.76,11,0,16,0.77
2013-8-8,82,73,68,73,69,66,94,89,69,29.83,29.75,13,0,13,0.28
2013-8-9,78,70,62,68,64,53,95,82,54,29.89,29.74,10,0,10,0.25
2013-8-10,81,75,64,66,62,56,79,65,54,29.96,29.91,6,0,7,0.00
2013-8-11,81,70,62,66,60,54,85,70,55,29.99,29.88,8,0,9,0.00
2013-8-12,82,71,60,66,62,58,94,75,52,29.93,29.71,8,0,10,0.00
2013-8-13,74,67,53,66,54,46,82,64,52,29.87,29.71,23,4,23,0.00
2013-8-14,67,57,49,54,49,47,93,77,53,30.04,29.86,13,1,13,0.01
2013-8-15,73,62,48,55,50,46,94,66,41,30.08,29.98,6,0,7,0.01
2013-8-16,74,60,53,55,51,48,91,74,43,30.03,29.99,9,0,9,0.00
2013-8-20,84,75,57,64,61,55,94,65,45,30.05,29.98,8,0,8,0.00
2013-8-21,84,71,58,66,62,56,94,75,45,30.06,29.91,7,0,7,0.01
2013-8-22,81,70,63,70,65,60,92,83,66,29.95,29.86,11,0,11,0.00
2013-8-23,82,74,61,68,58,52,93,59,42,30.03,29.91,10,0,12,0.04
2013-8-24,66,58,55,56,52,51,86,81,71,30.16,30.03,7,0,7,0.00
2013-8-25,68,66,64,59,59,58,83,79,72,30.12,30.10,0,0,0,0.00
2013-8-26,85,72,60,68,61,55,86,71,46,30.10,29.87,11,0,12,0.00
2013-8-27,77,73,70,72,68,65,92,86,79,29.90,29.77,10,0,11,0.21
2013-8-28,80,75,71,73,70,67,93,84,72,29.80,29.67,14,1,15,0.01
2013-8-29,85,74,68,69,66,62,93,78,48,29.91,29.79,7,0,9,0.00
2013-8-30,86,74,62,69,66,60,95,77,52,29.86,29.67,11,0,14,0.00
2013-8-31,72,71,70,68,67,66,90,88,87,29.67,29.57,9,0,9,0.01
2013-9-2,79,73,69,71,68,67,94,86,72,29.65,29.64,8,0,8,0.00
2013-9-3,65,61,55,58,54,52,94,78,66,29.92,29.78,12,1,13,0.01
2013-9-4,72,56,51,59,53,49,95,89,61,30.00,29.92,9,0,9,0.01
2013-9-5,73,66,52,59,51,40,90,61,34,30.09,29.99,18,1,18,0.00
2013-9-6,74,59,44,51,46,37,94,67,29,30.15,29.99,12,0,12,0.00
2013-9-7,81,64,48,62,54,46,94,72,41,29.99,29.80,10,0,10,0.00
2013-9-8,75,68,58,69,61,51,92,78,64,29.92,29.76,13,2,13,0.15
2013-9-9,84,67,53,72,61,50,92,81,56,29.94,29.84,8,0,9,0.02
2013-9-10,91,79,70,74,70,66,88,75,55,29.95,29.86,10,1,11,0.00
2013-9-11,90,79,72,73,70,66,92,76,54,29.98,29.83,10,0,10,0.00
2013-9-12,73,71,69,67,66,66,90,85,81,29.83,29.78,5,0,5,0.00
2013-9-13,60,60,58,52,52,51,82,76,74,29.82,29.80,12,6,13,0.14
2013-9-14,52,50,48,47,46,45,90,86,77,30.04,30.01,1,0,1,0.01
2013-9-15,47,47,47,45,45,45,90,90,90,30.02,30.02,0,0,0,0.00
2013-9-16,68,60,49,54,50,46,89,69,51,30.20,30.07,16,4,19,0.02
2013-9-17,71,61,44,51,48,42,94,64,44,30.27,30.11,12,2,12,0.01
2013-9-18,73,60,46,59,52,43,88,74,55,30.11,29.96,8,1,9,0.00
2013-9-19,73,66,62,64,61,58,94,85,70,29.99,29.87,6,0,6,0.00
2013-9-20,80,71,64,69,66,62,94,85,66,29.89,29.65,8,1,8,0.00
2013-9-21,71,64,54,67,60,52,94,87,68,29.68,29.51,20,1,20,0.64
2013-9-22,54,52,50,52,50,49,95,94,91,29.74,29.68,4,0,4,0.00
2013-9-24,69,59,45,48,46,43,94,64,41,30.01,29.85,10,1,11,0.01
2013-9-25,75,56,42,56,48,40,95,77,41,29.85,29.75,8,1,9,0.00
2013-9-26,75,60,46,53,47,38,95,68,30,29.97,29.81,10,1,10,0.01
2013-9-27,68,52,47,53,48,45,95,86,54,30.06,29.96,13,1,14,0.00
2013-10-2,80,72,60,65,62,58,94,71,52,29.95,29.89,7,0,8,0.01
2013-10-3,80,67,61,68,63,59,95,88,62,29.94,29.86,14,0,14,0.26
2013-10-4,81,69,62,67,63,60,95,85,56,29.95,29.89,10,0,10,0.01
2013-10-6,81,72,63,68,64,58,96,76,57,29.76,29.57,13,4,14,0.15
2013-10-7,63,63,63,58,58,58,84,84,84,29.59,29.59,5,5,11,0.00
2013-10-8,54,52,49,44,43,43,80,73,65,30.16,30.14,5,0,5,0.00
2013-10-9,69,61,48,46,43,38,82,52,34,30.19,30.09,13,2,13,0.00
2013-10-10,53,50,49,41,40,40,71,69,63,30.09,30.05,7,0,7,0.00
2013-10-18,48,48,47,41,40,40,76,75,75,29.83,29.82,0,0,1,0.70
2013-10-19,53,45,40,46,41,37,91,84,71,29.82,29.61,13,2,14,0.12
2013-10-20,59,46,37,41,38,34,91,72,47,29.89,29.82,13,3,13,0.00
2013-10-21,63,53,42,46,38,35,80,59,36,29.89,29.72,13,4,16,0.00
2013-10-22,52,43,34,47,33,27,90,70,44,29.86,29.72,14,2,15,0.14
2013-10-23,43,38,35,37,33,29,94,81,61,29.83,29.65,14,2,14,0.02
2013-10-24,45,36,31,33,30,26,89,77,49,30.06,29.82,16,1,16,0.02
2013-10-25,47,37,30,32,29,26,90,74,49,30.24,30.05,13,1,13,0.00
2013-10-26,46,40,33,35,27,24,73,60,43,30.13,29.77,16,4,16,0.00
2013-10-27,51,41,32,36,31,29,92,71,44,29.98,29.88,11,1,11,0.00
2013-10-28,58,43,28,39,31,26,92,69,34,30.19,29.98,10,1,12,0.01
2013-10-29,57,45,32,39,36,30,94,74,47,30.28,30.13,7,0,8,0.00
2013-10-30,64,52,40,53,43,35,87,73,52,30.12,29.92,7,1,7,0.00
2013-10-31,65,60,57,58,55,52,96,84,66,29.92,29.21,23,8,23,0.34
2013-11-1,65,56,51,57,48,41,90,73,60,29.52,29.15,24,7,24,0.37
2013-11-2,48,46,42,44,42,39,92,86,72,29.89,29.55,12,1,13,0.12
2013-11-3,47,40,31,40,32,24,92,73,49,30.35,29.89,15,2,15,0.00
2013-11-4,46,37,28,27,24,21,76,61,42,30.41,30.28,14,3,14,0.00
2013-11-5,59,49,40,41,34,25,67,56,44,30.33,30.17,9,2,9,0.00
2013-11-6,59,47,42,47,36,32,69,65,59,30.17,29.99,11,4,11,0.00
2013-11-7,43,40,38,38,30,24,89,67,50,30.03,29.93,18,4,21,0.40
2013-11-8,42,36,28,30,25,22,86,65,48,30.19,30.00,11,2,12,0.00
2013-11-9,58,44,28,36,28,23,85,57,31,30.17,29.82,22,5,22,0.00
2013-11-10,52,42,33,37,31,25,79,65,51,30.19,29.83,15,2,16,0.00
2013-11-11,46,38,29,36,29,25,93,72,48,30.18,29.91,22,5,23,0.06
2013-11-12,32,28,26,30,24,18,93,83,66,30.41,30.03,21,6,22,0.01
2013-11-13,36,30,24,22,18,16,75,61,48,30.45,30.24,12,3,14,0.01
2013-11-14,47,38,28,22,18,15,66,47,28,30.25,30.03,18,7,18,0.00
2013-11-15,54,45,36,30,22,16,58,41,26,30.07,29.97,16,4,16,0.00
2013-11-16,57,49,38,49,41,29,85,75,56,30.08,29.82,14,5,14,0.00
2013-11-17,60,57,52,56,51,39,92,83,54,29.84,29.33,25,10,26,0.68
2013-11-18,54,44,36,40,32,24,81,62,49,29.98,29.46,24,5,25,0.00
2013-11-19,38,34,27,25,22,20,75,63,52,30.31,29.96,18,4,19,0.00
2013-11-20,45,35,25,22,17,10,78,51,28,30.34,30.20,15,4,19,0.00
2013-11-21,52,42,34,40,30,14,86,64,38,30.29,30.08,13,3,13,0.15
2013-11-22,51,46,35,49,42,27,94,87,65,30.19,29.97,26,5,26,0.08
2013-11-23,35,28,20,28,19,7,85,72,51,30.31,30.10,29,6,29,0.00
2013-11-24,21,18,15,12,7,1,75,61,47,30.47,30.31,29,4,29,0.00
2013-11-25,34,24,15,26,11,6,88,58,36,30.41,30.09,20,5,20,0.00
2013-11-26,32,30,29,30,28,26,93,90,86,30.10,29.71,11,2,11,0.01
2013-11-27,30,26,22,28,22,11,93,85,57,30.04,29.68,22,8,25,0.00
2013-11-28,26,21,14,19,14,7,79,74,67,30.33,30.06,10,2,11,0.00
2013-11-29,34,26,18,22,18,14,87,71,55,30.56,30.33,9,1,10,0.11
2013-11-30,38,30,22,24,20,16,79,68,57,30.50,30.08,9,4,13,0.00
2013-12-1,40,36,31,28,26,23,74,68,60,30.08,29.85,10,2,10,0.00
2013-12-2,40,36,32,32,30,27,88,79,73,29.85,29.73,8,1,8,0.00
2013-12-3,52,41,33,41,35,29,90,80,61,29.80,29.74,10,2,10,0.01
2013-12-4,57,47,39,47,40,35,86,78,67,29.83,29.68,8,3,12,0.00
2013-12-5,60,50,34,57,44,30,95,81,61,29.99,29.65,16,6,18,0.12
2013-12-6,34,27,0,30,24,0,86,69,86,30.14,29.91,8,6,15,0.00
2013-12-7,26,20,0,24,15,0,91,75,68,30.51,30.14,6,3,15,0.01
2013-12-8,28,21,12,24,15,9,87,77,62,30.51,29.95,6,3,20,0.00
2013-12-9,35,30,26,33,24,17,93,77,69,30.05,29.83,13,2,15,0.01
2013-12-10,26,25,23,18,17,16,82,72,69,30.03,30.00,10,2,11,0.00
2013-12-11,28,20,16,19,11,8,82,68,55,30.29,30.14,6,2,15,0.00
2013-12-12,20,15,6,10,0,-6,78,53,35,30.40,30.17,14,3,20,0.00
2013-12-13,32,24,15,17,10,1,68,56,48,30.18,30.08,9,1,10,0.00
2013-12-14,36,30,26,35,26,17,94,82,61,30.11,29.55,14,3,14,0.00
2013-12-15,36,24,16,34,19,7,94,80,65,29.97,29.55,19,4,23,0.00
2013-12-16,23,19,14,20,10,7,86,68,54,30.09,29.92,8,1,10,0.00
2013-12-17,29,26,23,27,21,17,91,81,66,29.96,29.83,12,2,13,0.00
2013-12-18,29,25,22,20,18,14,82,72,58,30.08,29.94,14,3,16,0.00
2013-12-19,46,38,29,31,24,14,70,56,49,29.97,29.86,14,5,14,0.13
2013-12-20,54,48,43,51,39,26,90,69,45,29.86,29.71,18,7,18,0.04
2013-12-21,63,56,54,60,53,50,94,89,84,29.72,29.37,20,7,22,1.17
2013-12-22,68,56,46,58,49,40,94,76,57,29.83,29.30,26,8,29,0.48
2013-12-23,46,34,28,41,27,17,91,75,61,30.20,29.83,15,3,16,0.05
2013-12-24,28,18,12,21,10,4,84,69,57,30.47,30.16,15,3,20,0.00
2013-12-25,28,20,10,22,11,5,82,69,48,30.44,30.08,14,4,14,0.00
2013-12-26,36,30,27,24,19,12,82,64,45,30.24,30.00,20,4,20,0.00
2013-12-27,44,35,27,27,23,16,69,61,49,30.25,30.12,12,3,12,0.00
2013-12-28,51,41,35,31,27,23,65,56,44,30.12,29.90,13,6,13,0.00
2013-12-29,42,40,32,39,32,21,93,74,42,29.90,29.59,21,2,24,0.19
2013-12-30,32,23,21,29,14,7,88,69,49,30.13,29.78,19,5,24,0.00
2013-12-31,23,21,19,18,13,8,82,71,60,30.21,29.98,12,2,21,0.00
2014-1-1,29,24,21,21,17,15,80,77,71,30.24,29.99,11,2,11,0.00
2014-1-2,23,18,11,18,13,3,86,81,69,30.00,29.68,28,7,32,0.00